createdAt,value
2023-01-13T00:00:52.463Z,31.00
2023-01-13T00:01:52.469Z,30.50
2023-01-13T00:02:52.475Z,31.40
2023-01-13T00:03:52.488Z,32.50
2023-01-13T00:04:52.566Z,31.40
2023-01-13T00:05:52.462Z,32.40
2023-01-13T00:06:52.452Z,31.80
2023-01-13T00:07:52.448Z,31.90
2023-01-13T00:08:52.462Z,32.60
2023-01-13T00:09:52.447Z,32.20
2023-01-13T00:10:52.446Z,33.40
2023-01-13T00:11:52.439Z,32.40
2023-01-13T00:12:52.448Z,33.10
2023-01-13T00:13:52.430Z,33.00
2023-01-13T00:14:52.429Z,33.10
2023-01-13T00:15:52.477Z,32.00
2023-01-13T00:16:52.427Z,31.40
2023-01-13T00:17:52.422Z,32.60
2023-01-13T00:18:52.424Z,32.20
2023-01-13T00:19:52.421Z,32.70
2023-01-13T00:20:52.439Z,31.70
2023-01-13T00:21:52.411Z,31.80
2023-01-13T00:22:52.408Z,32.40
2023-01-13T00:23:52.408Z,31.80
2023-01-13T00:24:52.414Z,32.30
2023-01-13T00:25:52.399Z,32.00
2023-01-13T00:26:52.416Z,31.10
2023-01-13T00:27:52.395Z,30.80
2023-01-13T00:28:52.392Z,30.10
2023-01-13T00:29:52.411Z,30.90
2023-01-13T00:30:52.427Z,31.00
2023-01-13T00:31:52.392Z,30.80
2023-01-13T00:32:52.395Z,30.40
2023-01-13T00:33:52.376Z,30.80
2023-01-13T00:34:52.386Z,30.60
2023-01-13T00:35:52.374Z,29.90
2023-01-13T00:36:52.412Z,30.10
2023-01-13T00:37:52.368Z,30.20
2023-01-13T00:38:52.368Z,30.30
2023-01-13T00:39:52.369Z,30.00
2023-01-13T00:40:52.360Z,30.20
2023-01-13T00:41:52.363Z,30.70
2023-01-13T00:42:52.354Z,30.50
2023-01-13T00:43:52.353Z,29.30
2023-01-13T00:44:52.353Z,30.10
2023-01-13T00:45:52.348Z,29.20
2023-01-13T00:46:52.369Z,30.00
2023-01-13T00:47:52.344Z,30.20
2023-01-13T00:48:52.352Z,30.00
2023-01-13T00:49:52.335Z,30.00
2023-01-13T00:50:52.346Z,30.20
2023-01-13T00:51:52.334Z,30.40
2023-01-13T00:52:52.351Z,29.70
2023-01-13T00:53:52.347Z,29.20
2023-01-13T00:54:52.335Z,28.70
2023-01-13T00:55:52.321Z,29.60
2023-01-13T00:56:52.319Z,28.60
2023-01-13T00:57:52.319Z,28.10
2023-01-13T00:58:52.312Z,28.10
2023-01-13T00:59:52.318Z,28.60
2023-01-13T01:00:52.469Z,28.80
2023-01-13T01:01:52.397Z,28.80
2023-01-13T01:02:52.305Z,29.80
2023-01-13T01:03:52.306Z,28.80
2023-01-13T01:04:52.302Z,29.10
2023-01-13T01:05:52.295Z,28.20
2023-01-13T01:06:52.292Z,29.10
2023-01-13T01:07:52.290Z,28.60
2023-01-13T01:08:52.316Z,29.10
2023-01-13T01:09:52.287Z,29.60
2023-01-13T01:10:52.280Z,28.90
2023-01-13T01:11:52.283Z,28.90
2023-01-13T01:12:52.270Z,29.00
2023-01-13T01:13:52.282Z,28.50
2023-01-13T01:14:52.275Z,29.40
2023-01-13T01:15:52.281Z,29.30
2023-01-13T01:16:52.270Z,29.00
2023-01-13T01:17:52.271Z,28.50
2023-01-13T01:18:52.270Z,28.00
2023-01-13T01:19:52.269Z,28.90
2023-01-13T01:20:52.256Z,27.90
2023-01-13T01:21:52.283Z,28.30
2023-01-13T01:22:52.250Z,28.50
2023-01-13T01:23:52.252Z,28.10
2023-01-13T01:24:52.293Z,28.10
2023-01-13T01:25:52.256Z,27.60
2023-01-13T01:26:52.241Z,26.80
2023-01-13T01:27:52.238Z,27.10
2023-01-13T01:28:52.241Z,27.30
2023-01-13T01:29:52.230Z,27.40
2023-01-13T01:30:52.230Z,27.70
2023-01-13T01:31:52.232Z,28.90
2023-01-13T01:32:52.221Z,26.60
2023-01-13T01:33:52.223Z,26.70
2023-01-13T01:34:52.228Z,26.70
2023-01-13T01:35:52.213Z,26.30
2023-01-13T01:36:52.213Z,25.80
2023-01-13T01:37:52.219Z,26.00
2023-01-13T01:38:52.215Z,26.50
2023-01-13T01:39:52.209Z,25.70
2023-01-13T01:40:52.226Z,25.60
2023-01-13T01:41:52.200Z,25.20
2023-01-13T01:42:52.200Z,25.00
2023-01-13T01:43:52.197Z,25.30
2023-01-13T01:44:52.201Z,25.00
2023-01-13T01:45:52.193Z,24.40
2023-01-13T01:46:52.253Z,24.40
2023-01-13T01:47:52.185Z,24.20
2023-01-13T01:48:52.180Z,24.60
2023-01-13T01:49:52.183Z,23.70
2023-01-13T01:50:52.189Z,24.10
2023-01-13T01:51:52.175Z,23.90
2023-01-13T01:52:52.174Z,23.30
2023-01-13T01:53:52.170Z,23.00
2023-01-13T01:54:52.165Z,22.20
2023-01-13T01:55:52.173Z,22.60
2023-01-13T01:56:52.200Z,22.50
2023-01-13T01:57:52.164Z,22.30
2023-01-13T01:58:52.158Z,22.10
2023-01-13T01:59:52.158Z,21.90
2023-01-13T02:00:52.254Z,21.70
2023-01-13T02:01:52.270Z,21.60
2023-01-13T02:02:52.147Z,21.00
2023-01-13T02:03:52.154Z,20.50
2023-01-13T02:04:52.137Z,20.30
2023-01-13T02:05:52.141Z,20.20
2023-01-13T02:06:52.140Z,19.90
2023-01-13T02:07:52.139Z,20.50
2023-01-13T02:08:52.132Z,20.10
2023-01-13T02:09:52.126Z,19.50
2023-01-13T02:10:52.137Z,19.40
2023-01-13T02:11:52.126Z,18.80
2023-01-13T02:12:52.142Z,18.40
2023-01-13T02:13:52.117Z,18.60
2023-01-13T02:14:52.115Z,18.40
2023-01-13T02:15:52.111Z,18.10
2023-01-13T02:16:52.110Z,18.80
2023-01-13T02:17:52.118Z,18.10
2023-01-13T02:18:52.127Z,18.30
2023-01-13T02:19:52.106Z,18.20
2023-01-13T02:20:52.111Z,18.20
2023-01-13T02:21:52.103Z,18.00
2023-01-13T02:22:52.097Z,17.80
2023-01-13T02:23:52.100Z,17.70
2023-01-13T02:24:52.092Z,17.70
2023-01-13T02:25:52.092Z,17.50
2023-01-13T02:26:52.086Z,17.60
2023-01-13T02:27:52.082Z,17.60
2023-01-13T02:28:52.105Z,17.80
2023-01-13T02:29:52.078Z,17.40
2023-01-13T02:30:52.079Z,17.80
2023-01-13T02:31:52.134Z,17.60
2023-01-13T02:32:52.074Z,17.60
2023-01-13T02:33:52.065Z,17.80
2023-01-13T02:34:52.070Z,17.60
2023-01-13T02:35:52.065Z,18.00
2023-01-13T02:36:52.099Z,17.80
2023-01-13T02:37:52.059Z,18.10
2023-01-13T02:38:52.055Z,17.80
2023-01-13T02:39:52.059Z,17.80
2023-01-13T02:40:52.051Z,18.10
2023-01-13T02:41:52.050Z,17.90
2023-01-13T02:42:52.045Z,18.10
2023-01-13T02:43:52.045Z,18.10
2023-01-13T02:44:52.065Z,18.10
2023-01-13T02:45:52.090Z,18.40
2023-01-13T02:46:52.047Z,18.20
2023-01-13T02:47:52.031Z,18.00
2023-01-13T02:48:52.030Z,18.00
2023-01-13T02:49:52.024Z,18.10
2023-01-13T02:50:52.024Z,34.80
2023-01-13T02:51:52.031Z,18.00
2023-01-13T02:52:52.024Z,17.90
2023-01-13T02:53:52.017Z,18.30
2023-01-13T02:54:52.018Z,18.00
2023-01-13T02:55:52.015Z,18.20
2023-01-13T02:56:52.023Z,17.80
2023-01-13T02:57:52.013Z,18.30
2023-01-13T02:58:52.006Z,18.50
2023-01-13T02:59:51.993Z,18.00
2023-01-13T03:00:52.258Z,18.50
2023-01-13T03:01:52.222Z,18.20
2023-01-13T03:02:51.992Z,18.30
2023-01-13T03:03:51.978Z,18.50
2023-01-13T03:04:51.975Z,17.80
2023-01-13T03:05:51.980Z,18.00
2023-01-13T03:06:51.981Z,18.20
2023-01-13T03:07:51.974Z,18.00
2023-01-13T03:08:51.966Z,17.90
2023-01-13T03:09:51.976Z,17.50
2023-01-13T03:10:51.965Z,17.70
2023-01-13T03:11:51.956Z,17.50
2023-01-13T03:12:51.976Z,17.40
2023-01-13T03:13:51.955Z,17.30
2023-01-13T03:14:51.955Z,17.70
2023-01-13T03:15:51.963Z,17.70
2023-01-13T03:16:52.005Z,17.30
2023-01-13T03:17:51.945Z,17.50
2023-01-13T03:18:51.940Z,16.90
2023-01-13T03:19:51.940Z,17.30
2023-01-13T03:20:51.938Z,17.20
2023-01-13T03:21:51.933Z,17.50
2023-01-13T03:22:51.939Z,17.40
2023-01-13T03:23:51.960Z,17.90
2023-01-13T03:24:51.931Z,17.70
2023-01-13T03:25:51.923Z,17.70
2023-01-13T03:26:51.922Z,17.50
2023-01-13T03:27:51.919Z,17.70
2023-01-13T03:28:51.921Z,17.80
2023-01-13T03:29:51.920Z,17.80
2023-01-13T03:30:51.937Z,17.80
2023-01-13T03:31:51.912Z,17.50
2023-01-13T03:32:51.932Z,17.20
2023-01-13T03:33:51.902Z,17.40
2023-01-13T03:34:51.906Z,17.60
2023-01-13T03:35:51.903Z,17.60
2023-01-13T03:36:51.901Z,17.40
2023-01-13T03:37:51.895Z,17.50
2023-01-13T03:38:51.894Z,17.20
2023-01-13T03:39:51.891Z,17.70
2023-01-13T03:40:51.905Z,17.20
2023-01-13T03:41:51.887Z,17.40
2023-01-13T03:42:51.882Z,17.30
2023-01-13T03:43:51.880Z,17.10
2023-01-13T03:44:51.888Z,17.10
2023-01-13T03:45:51.921Z,16.90
2023-01-13T03:46:51.875Z,16.90
2023-01-13T03:47:51.871Z,17.10
2023-01-13T03:48:51.890Z,17.00
2023-01-13T03:49:51.862Z,17.20
2023-01-13T03:50:51.866Z,17.00
2023-01-13T03:51:51.864Z,17.50
2023-01-13T03:52:51.865Z,17.00
2023-01-13T03:53:51.857Z,17.10
2023-01-13T03:54:51.855Z,17.20
2023-01-13T03:55:51.850Z,17.30
2023-01-13T03:56:51.847Z,17.30
2023-01-13T03:57:51.906Z,17.20
2023-01-13T03:58:51.847Z,17.00
2023-01-13T03:59:51.839Z,17.30
2023-01-13T04:00:52.009Z,17.10
2023-01-13T04:01:52.018Z,17.40
2023-01-13T04:02:51.834Z,17.30
2023-01-13T04:03:51.872Z,17.20
2023-01-13T04:04:51.856Z,16.80
2023-01-13T04:05:51.828Z,17.20
2023-01-13T04:06:51.841Z,17.30
2023-01-13T04:07:51.823Z,17.40
2023-01-13T04:08:51.835Z,17.10
2023-01-13T04:09:51.836Z,17.20
2023-01-13T04:10:51.820Z,17.40
2023-01-13T04:11:51.822Z,17.00
2023-01-13T04:12:51.817Z,16.90
2023-01-13T04:13:51.810Z,16.80
2023-01-13T04:14:51.806Z,17.40
2023-01-13T04:15:51.862Z,17.10
2023-01-13T04:16:51.802Z,17.30
2023-01-13T04:17:51.814Z,16.70
2023-01-13T04:18:51.796Z,16.90
2023-01-13T04:19:51.812Z,16.60
2023-01-13T04:20:51.836Z,16.90
2023-01-13T04:21:51.796Z,17.10
2023-01-13T04:22:51.818Z,17.00
2023-01-13T04:23:51.791Z,16.80
2023-01-13T04:24:51.789Z,17.00
2023-01-13T04:25:51.809Z,17.20
2023-01-13T04:26:51.783Z,17.00
2023-01-13T04:27:51.775Z,16.40
2023-01-13T04:28:51.779Z,16.50
2023-01-13T04:29:51.825Z,17.00
2023-01-13T04:30:51.858Z,16.80
2023-01-13T04:31:51.770Z,16.20
2023-01-13T04:32:51.761Z,16.40
2023-01-13T04:33:51.765Z,16.60
2023-01-13T04:34:51.769Z,16.50
2023-01-13T04:35:51.760Z,16.20
2023-01-13T04:36:51.781Z,16.10
2023-01-13T04:37:51.764Z,16.50
2023-01-13T04:38:51.771Z,16.60
2023-01-13T04:39:51.764Z,16.20
2023-01-13T04:40:51.742Z,16.60
2023-01-13T04:41:51.753Z,16.60
2023-01-13T04:42:51.755Z,16.60
2023-01-13T04:43:51.742Z,16.10
2023-01-13T04:44:51.753Z,17.00
2023-01-13T04:45:51.828Z,16.80
2023-01-13T04:46:51.749Z,17.10
2023-01-13T04:47:51.756Z,17.20
2023-01-13T04:48:51.743Z,16.80
2023-01-13T04:49:51.741Z,17.40
2023-01-13T04:50:51.722Z,17.10
2023-01-13T04:51:51.731Z,17.10
2023-01-13T04:52:51.741Z,17.10
2023-01-13T04:53:51.715Z,16.90
2023-01-13T04:54:51.706Z,17.00
2023-01-13T04:55:51.720Z,16.50
2023-01-13T04:56:51.711Z,16.90
2023-01-13T04:57:51.703Z,17.20
2023-01-13T04:58:51.705Z,16.90
2023-01-13T04:59:51.701Z,17.20
2023-01-13T05:00:51.805Z,17.10
2023-01-13T05:01:51.821Z,16.90
2023-01-13T05:02:51.719Z,16.20
2023-01-13T05:03:51.693Z,16.60
2023-01-13T05:04:51.724Z,17.20
2023-01-13T05:05:51.688Z,16.80
2023-01-13T05:06:51.681Z,16.40
2023-01-13T05:07:51.685Z,16.60
2023-01-13T05:08:51.697Z,16.20
2023-01-13T05:09:51.685Z,16.50
2023-01-13T05:10:51.671Z,16.70
2023-01-13T05:11:51.679Z,16.40
2023-01-13T05:12:51.668Z,16.80
2023-01-13T05:13:51.674Z,16.60
2023-01-13T05:14:51.669Z,16.50
2023-01-13T05:15:51.720Z,16.80
2023-01-13T05:16:51.660Z,16.30
2023-01-13T05:17:51.664Z,16.50
2023-01-13T05:18:51.655Z,16.20
2023-01-13T05:19:51.665Z,16.50
2023-01-13T05:20:51.656Z,16.60
2023-01-13T05:21:51.654Z,16.80
2023-01-13T05:22:51.649Z,16.60
2023-01-13T05:23:51.648Z,17.00
2023-01-13T05:24:51.672Z,16.90
2023-01-13T05:25:51.655Z,16.40
2023-01-13T05:26:51.645Z,17.30
2023-01-13T05:27:51.645Z,17.00
2023-01-13T05:28:51.639Z,16.70
2023-01-13T05:29:51.642Z,16.90
2023-01-13T05:30:51.699Z,17.30
2023-01-13T05:31:51.626Z,17.30
2023-01-13T05:32:51.622Z,17.70
2023-01-13T05:33:51.623Z,17.00
2023-01-13T05:34:51.618Z,17.20
2023-01-13T05:35:51.615Z,17.80
2023-01-13T05:36:51.623Z,17.70
2023-01-13T05:37:51.623Z,17.60
2023-01-13T05:38:51.616Z,18.00
2023-01-13T05:39:51.616Z,16.60
2023-01-13T05:40:51.630Z,17.00
2023-01-13T05:41:51.603Z,16.70
2023-01-13T05:42:51.597Z,16.90
2023-01-13T05:43:51.604Z,16.40
2023-01-13T05:44:51.598Z,16.00
2023-01-13T05:45:51.598Z,16.40
2023-01-13T05:46:51.697Z,17.30
2023-01-13T05:47:51.601Z,16.70
2023-01-13T05:48:51.589Z,16.70
2023-01-13T05:49:51.588Z,15.90
2023-01-13T05:50:51.580Z,16.00
2023-01-13T05:51:51.591Z,16.30
2023-01-13T05:52:51.579Z,16.60
2023-01-13T05:53:51.578Z,17.10
2023-01-13T05:54:51.574Z,16.20
2023-01-13T05:55:51.574Z,16.30
2023-01-13T05:56:51.592Z,16.30
2023-01-13T05:57:51.573Z,16.70
2023-01-13T05:58:51.565Z,15.50
2023-01-13T05:59:51.564Z,15.70
2023-01-13T06:00:51.571Z,16.20
2023-01-13T06:01:51.566Z,15.70
2023-01-13T06:02:51.628Z,16.20
2023-01-13T06:03:51.557Z,15.70
2023-01-13T06:04:51.558Z,15.50
2023-01-13T06:05:51.563Z,15.90
2023-01-13T06:06:51.545Z,15.80
2023-01-13T06:07:51.549Z,15.60
2023-01-13T06:08:51.549Z,15.80
2023-01-13T06:09:51.542Z,15.70
2023-01-13T06:10:51.537Z,16.40
2023-01-13T06:11:51.538Z,17.20
2023-01-13T06:12:51.549Z,15.90
2023-01-13T06:13:51.537Z,15.80
2023-01-13T06:14:51.533Z,15.80
2023-01-13T06:15:51.600Z,16.00
2023-01-13T06:16:51.521Z,16.30
2023-01-13T06:17:51.523Z,15.90
2023-01-13T06:18:51.525Z,15.80
2023-01-13T06:19:51.520Z,16.20
2023-01-13T06:20:51.516Z,16.10
2023-01-13T06:21:51.520Z,15.90
2023-01-13T06:22:51.520Z,16.40
2023-01-13T06:23:51.512Z,16.20
2023-01-13T06:24:51.509Z,16.70
2023-01-13T06:25:51.505Z,15.90
2023-01-13T06:26:51.506Z,16.90
2023-01-13T06:27:51.515Z,16.10
2023-01-13T06:28:51.522Z,15.70
2023-01-13T06:29:51.500Z,16.10
2023-01-13T06:30:51.497Z,15.90
2023-01-13T06:31:51.562Z,15.60
2023-01-13T06:32:51.489Z,16.10
2023-01-13T06:33:51.490Z,16.10
2023-01-13T06:34:51.491Z,17.20
2023-01-13T06:35:51.494Z,16.20
2023-01-13T06:36:51.479Z,15.40
2023-01-13T06:37:51.485Z,15.60
2023-01-13T06:38:51.477Z,16.00
2023-01-13T06:39:51.483Z,15.70
2023-01-13T06:40:51.483Z,17.30
2023-01-13T06:41:51.476Z,15.60
2023-01-13T06:42:51.473Z,16.10
2023-01-13T06:43:51.477Z,16.30
2023-01-13T06:44:51.505Z,16.80
2023-01-13T06:45:51.466Z,16.00
2023-01-13T06:46:51.482Z,15.80
2023-01-13T06:47:51.470Z,15.90
2023-01-13T06:48:51.458Z,15.70
2023-01-13T06:49:51.463Z,15.80
2023-01-13T06:50:51.456Z,15.70
2023-01-13T06:51:51.451Z,16.20
2023-01-13T06:52:51.448Z,15.90
2023-01-13T06:53:51.448Z,17.20
2023-01-13T06:54:51.455Z,15.80
2023-01-13T06:55:51.459Z,15.30
2023-01-13T06:56:51.443Z,15.60
2023-01-13T06:57:51.442Z,15.50
2023-01-13T06:58:51.439Z,15.20
2023-01-13T06:59:51.440Z,15.30
2023-01-13T07:00:51.819Z,15.80
2023-01-13T07:01:51.609Z,15.70
2023-01-13T07:02:51.492Z,15.90
2023-01-13T07:03:51.429Z,16.20
2023-01-13T07:04:51.426Z,15.90
2023-01-13T07:05:51.426Z,15.80
2023-01-13T07:06:51.428Z,15.90
2023-01-13T07:07:51.417Z,16.10
2023-01-13T07:08:51.419Z,16.10
2023-01-13T07:09:51.423Z,16.00
2023-01-13T07:10:51.469Z,15.80
2023-01-13T07:11:51.418Z,16.10
2023-01-13T07:12:51.406Z,16.50
2023-01-13T07:13:51.410Z,16.90
2023-01-13T07:14:51.407Z,16.30
2023-01-13T07:15:51.410Z,15.70
2023-01-13T07:16:51.483Z,15.90
2023-01-13T07:17:51.407Z,15.20
2023-01-13T07:18:51.405Z,16.20
2023-01-13T07:19:51.395Z,15.30
2023-01-13T07:20:51.391Z,15.90
2023-01-13T07:21:51.421Z,15.90
2023-01-13T07:22:51.393Z,16.30
2023-01-13T07:23:51.405Z,16.20
2023-01-13T07:24:51.386Z,16.00
2023-01-13T07:25:51.390Z,16.10
2023-01-13T07:26:51.377Z,15.80
2023-01-13T07:27:51.379Z,16.40
2023-01-13T07:28:51.375Z,16.10
2023-01-13T07:29:51.391Z,16.00
2023-01-13T07:30:51.375Z,16.20
2023-01-13T07:31:51.480Z,16.10
2023-01-13T07:32:51.391Z,15.90
2023-01-13T07:33:51.375Z,15.30
2023-01-13T07:34:51.365Z,15.80
2023-01-13T07:35:51.369Z,16.80
2023-01-13T07:36:51.365Z,16.30
2023-01-13T07:37:51.371Z,16.70
2023-01-13T07:38:53.902Z,16.70
2023-01-13T07:39:51.386Z,17.20
2023-01-13T07:40:51.352Z,17.10
2023-01-13T07:41:51.359Z,16.20
2023-01-13T07:43:51.381Z,17.30
2023-01-13T07:44:51.342Z,17.00
2023-01-13T07:45:51.395Z,17.30
2023-01-13T07:46:51.340Z,16.40
2023-01-13T07:47:51.343Z,16.60
2023-01-13T07:48:51.357Z,17.30
2023-01-13T07:49:51.344Z,16.90
2023-01-13T07:50:51.334Z,16.70
2023-01-13T07:51:51.340Z,16.70
2023-01-13T07:52:51.325Z,17.00
2023-01-13T07:53:51.380Z,16.90
2023-01-13T07:54:51.335Z,16.60
2023-01-13T07:55:51.330Z,16.00
2023-01-13T07:56:51.323Z,17.60
2023-01-13T07:57:51.321Z,17.60
2023-01-13T07:58:51.317Z,16.50
2023-01-13T07:59:51.337Z,16.80
2023-01-13T08:00:51.333Z,17.20
2023-01-13T08:01:51.432Z,16.60
2023-01-13T08:02:51.450Z,15.80
2023-01-13T08:03:51.313Z,16.10
2023-01-13T08:04:51.348Z,16.70
2023-01-13T08:05:51.315Z,18.30
2023-01-13T08:06:51.308Z,15.60
2023-01-13T08:07:51.329Z,16.00
2023-01-13T08:08:51.293Z,16.00
2023-01-13T08:09:51.296Z,16.10
2023-01-13T08:10:51.290Z,16.00
2023-01-13T08:11:51.299Z,16.30
2023-01-13T08:12:55.322Z,16.30
2023-01-13T08:13:51.288Z,17.90
2023-01-13T08:14:51.319Z,16.80
2023-01-13T08:15:51.298Z,17.20
2023-01-13T08:16:51.332Z,17.10
2023-01-13T08:17:51.312Z,16.40
2023-01-13T08:18:51.275Z,16.00
2023-01-13T08:19:51.283Z,16.70
2023-01-13T08:20:51.294Z,16.70
2023-01-13T08:21:51.285Z,16.00
2023-01-13T08:22:51.263Z,16.20
2023-01-13T08:23:51.275Z,16.40
2023-01-13T08:24:51.258Z,16.40
2023-01-13T08:25:51.260Z,15.90
2023-01-13T08:26:51.265Z,16.80
2023-01-13T08:27:51.257Z,16.10
2023-01-13T08:28:51.250Z,15.50
2023-01-13T08:29:51.250Z,15.70
2023-01-13T08:30:51.266Z,15.30
2023-01-13T08:31:51.246Z,15.30
2023-01-13T08:32:51.254Z,15.60
2023-01-13T08:33:51.244Z,16.50
2023-01-13T08:34:51.248Z,15.60
2023-01-13T08:35:51.236Z,15.10
2023-01-13T08:36:51.262Z,14.80
2023-01-13T08:37:51.247Z,15.40
2023-01-13T08:38:51.237Z,15.70
2023-01-13T08:39:51.231Z,15.60
2023-01-13T08:40:51.231Z,15.70
2023-01-13T08:41:51.226Z,15.60
2023-01-13T08:42:51.228Z,15.90
2023-01-13T08:43:51.223Z,16.30
2023-01-13T08:44:51.222Z,15.90
2023-01-13T08:45:51.242Z,15.50
2023-01-13T08:46:51.222Z,16.30
2023-01-13T08:47:51.226Z,16.00
2023-01-13T08:48:51.224Z,15.80
2023-01-13T08:49:51.207Z,15.70
2023-01-13T08:50:51.218Z,16.00
2023-01-13T08:51:51.209Z,15.40
2023-01-13T08:52:51.243Z,15.80
2023-01-13T08:53:51.210Z,15.60
2023-01-13T08:54:51.206Z,15.90
2023-01-13T08:55:51.198Z,15.90
2023-01-13T08:56:51.288Z,15.10
2023-01-13T08:57:52.069Z,14.90
2023-01-13T08:58:51.190Z,14.80
2023-01-13T08:59:51.202Z,14.70
2023-01-13T09:00:51.193Z,14.50
2023-01-13T09:01:51.331Z,14.50
2023-01-13T09:02:51.188Z,15.00
2023-01-13T09:03:51.186Z,14.90
2023-01-13T09:04:51.170Z,14.50
2023-01-13T09:05:51.175Z,14.70
2023-01-13T09:06:51.187Z,14.80
2023-01-13T09:07:51.178Z,15.00
2023-01-13T09:08:51.197Z,15.60
2023-01-13T09:09:51.165Z,14.30
2023-01-13T09:10:51.174Z,14.30
2023-01-13T09:11:51.185Z,14.60
2023-01-13T09:12:51.164Z,15.10
2023-01-13T09:13:51.160Z,14.70
2023-01-13T09:14:51.157Z,14.50
2023-01-13T09:15:51.187Z,14.40
2023-01-13T09:16:51.147Z,15.30
2023-01-13T09:17:51.147Z,14.20
2023-01-13T09:18:51.151Z,13.90
2023-01-13T09:19:51.141Z,14.50
2023-01-13T09:20:51.149Z,14.30
2023-01-13T09:21:51.141Z,14.50
2023-01-13T09:22:51.140Z,14.40
2023-01-13T09:23:51.145Z,14.50
2023-01-13T09:24:51.166Z,14.30
2023-01-13T09:25:51.137Z,14.70
2023-01-13T09:26:51.142Z,14.90
2023-01-13T09:27:51.128Z,14.40
2023-01-13T09:28:51.124Z,14.60
2023-01-13T09:29:51.119Z,15.50
2023-01-13T09:30:51.194Z,15.10
2023-01-13T09:31:51.122Z,14.70
2023-01-13T09:32:51.119Z,14.90
2023-01-13T09:33:51.116Z,14.80
2023-01-13T09:34:51.122Z,15.20
2023-01-13T09:35:51.118Z,15.10
2023-01-13T09:36:51.113Z,15.20
2023-01-13T09:37:51.106Z,15.10
2023-01-13T09:38:51.111Z,14.80
2023-01-13T09:39:51.106Z,15.40
2023-01-13T09:40:51.138Z,14.80
2023-01-13T09:41:51.097Z,15.10
2023-01-13T09:42:51.101Z,15.00
2023-01-13T09:43:51.107Z,15.40
2023-01-13T09:44:51.102Z,14.90
2023-01-13T09:45:51.087Z,15.00
2023-01-13T09:46:51.097Z,14.90
2023-01-13T09:47:51.087Z,15.20
2023-01-13T09:48:51.081Z,14.80
2023-01-13T09:49:51.079Z,15.50
2023-01-13T09:50:51.083Z,15.30
2023-01-13T09:51:51.082Z,14.40
2023-01-13T09:52:51.087Z,14.80
2023-01-13T09:53:51.074Z,14.60
2023-01-13T09:54:51.077Z,14.80
2023-01-13T09:55:51.073Z,14.90
2023-01-13T09:56:51.103Z,14.60
2023-01-13T09:57:51.076Z,14.50
2023-01-13T09:58:51.068Z,14.50
2023-01-13T09:59:51.067Z,15.10
2023-01-13T10:00:51.062Z,15.20
2023-01-13T10:01:51.052Z,15.00
2023-01-13T10:02:51.054Z,15.00
2023-01-13T10:03:51.157Z,15.20
2023-01-13T10:04:51.134Z,14.90
2023-01-13T10:05:51.060Z,14.90
2023-01-13T10:06:51.055Z,15.20
2023-01-13T10:07:51.061Z,15.00
2023-01-13T10:08:51.050Z,14.30
2023-01-13T10:09:51.041Z,14.30
2023-01-13T10:10:51.049Z,14.40
2023-01-13T10:11:51.041Z,14.30
2023-01-13T10:12:51.066Z,14.60
2023-01-13T10:13:51.034Z,14.20
2023-01-13T10:14:51.040Z,14.70
2023-01-13T10:15:51.087Z,14.80
2023-01-13T10:16:51.044Z,14.50
2023-01-13T10:17:51.031Z,14.40
2023-01-13T10:18:51.028Z,13.90
2023-01-13T10:19:51.018Z,14.00
2023-01-13T10:20:51.026Z,14.70
2023-01-13T10:21:51.010Z,14.50
2023-01-13T10:22:51.021Z,14.10
2023-01-13T10:23:51.028Z,14.50
2023-01-13T10:24:51.011Z,14.50
2023-01-13T10:25:51.075Z,14.60
2023-01-13T10:26:51.020Z,14.00
2023-01-13T10:27:51.002Z,13.90
2023-01-13T10:28:51.033Z,14.70
2023-01-13T10:29:51.010Z,14.60
2023-01-13T10:30:51.056Z,15.40
2023-01-13T10:31:50.992Z,15.30
2023-01-13T10:32:50.993Z,15.30
2023-01-13T10:33:50.991Z,14.30
2023-01-13T10:34:50.994Z,15.90
2023-01-13T10:35:50.994Z,16.00
2023-01-13T10:36:50.992Z,15.20
2023-01-13T10:37:50.980Z,14.60
2023-01-13T10:38:51.004Z,15.20
2023-01-13T10:39:50.996Z,15.60
2023-01-13T10:40:50.989Z,15.50
2023-01-13T10:41:50.980Z,14.80
2023-01-13T10:42:50.975Z,14.00
2023-01-13T10:43:50.975Z,14.30
2023-01-13T10:44:50.996Z,14.50
2023-01-13T10:45:50.963Z,13.60
2023-01-13T10:46:51.067Z,13.70
2023-01-13T10:47:50.961Z,14.50
2023-01-13T10:48:50.957Z,13.40
2023-01-13T10:49:50.956Z,14.30
2023-01-13T10:50:50.959Z,14.50
2023-01-13T10:51:51.057Z,14.60
2023-01-13T10:52:50.952Z,14.60
2023-01-13T10:53:50.952Z,14.70
2023-01-13T10:54:50.954Z,15.60
2023-01-13T10:55:53.004Z,14.70
2023-01-13T10:56:50.949Z,15.10
2023-01-13T10:57:50.945Z,15.10
2023-01-13T10:58:50.959Z,13.80
2023-01-13T10:59:50.947Z,15.10
2023-01-13T11:00:50.970Z,15.50
2023-01-13T11:01:53.128Z,14.70
2023-01-13T11:02:50.942Z,14.00
2023-01-13T11:03:50.933Z,14.40
2023-01-13T11:04:50.961Z,13.50
2023-01-13T11:05:50.934Z,14.30
2023-01-13T11:06:50.927Z,14.60
2023-01-13T11:07:50.929Z,14.40
2023-01-13T11:08:50.922Z,14.80
2023-01-13T11:09:50.920Z,13.50
2023-01-13T11:10:50.945Z,14.70
2023-01-13T11:11:50.920Z,14.10
2023-01-13T11:12:50.923Z,13.10
2023-01-13T11:13:50.910Z,13.80
2023-01-13T11:14:50.917Z,13.30
2023-01-13T11:15:50.980Z,13.00
2023-01-13T11:16:53.651Z,13.30
2023-01-13T11:17:50.905Z,13.00
2023-01-13T11:18:50.904Z,12.80
2023-01-13T11:19:50.908Z,12.90
2023-01-13T11:20:50.897Z,13.30
2023-01-13T11:21:50.908Z,13.80
2023-01-13T11:22:50.904Z,13.10
2023-01-13T11:23:50.894Z,12.40
2023-01-13T11:24:51.110Z,13.00
2023-01-13T11:25:50.885Z,12.90
2023-01-13T11:26:50.887Z,12.20
2023-01-13T11:27:50.889Z,12.90
2023-01-13T11:28:50.882Z,12.70
2023-01-13T11:29:50.879Z,12.80
2023-01-13T11:30:50.967Z,12.70
2023-01-13T11:31:50.883Z,13.00
2023-01-13T11:32:50.899Z,13.40
2023-01-13T11:33:50.876Z,12.80
2023-01-13T11:34:50.877Z,13.40
2023-01-13T11:35:50.874Z,13.20
2023-01-13T11:36:50.876Z,13.20
2023-01-13T11:37:50.863Z,13.60
2023-01-13T11:38:50.893Z,12.80
2023-01-13T11:39:50.865Z,12.50
2023-01-13T11:40:50.878Z,13.20
2023-01-13T11:41:50.861Z,13.30
2023-01-13T11:42:50.867Z,13.30
2023-01-13T11:43:50.864Z,12.20
2023-01-13T11:44:50.864Z,12.10
2023-01-13T11:45:50.855Z,12.30
2023-01-13T11:46:50.919Z,12.00
2023-01-13T11:47:50.847Z,12.60
2023-01-13T11:48:50.875Z,11.80
2023-01-13T11:49:50.844Z,12.40
2023-01-13T11:50:50.852Z,12.60
2023-01-13T11:51:50.841Z,12.90
2023-01-13T11:52:50.851Z,13.20
2023-01-13T11:53:50.848Z,12.50
2023-01-13T11:54:50.862Z,13.00
2023-01-13T11:55:50.842Z,13.00
2023-01-13T11:56:50.841Z,12.30
2023-01-13T11:57:50.851Z,12.40
2023-01-13T11:58:51.504Z,12.50
2023-01-13T11:59:50.834Z,12.20
2023-01-13T12:00:50.837Z,11.90
2023-01-13T12:01:50.906Z,12.80
2023-01-13T12:02:50.896Z,12.80
2023-01-13T12:03:50.834Z,12.50
2023-01-13T12:04:50.855Z,13.00
2023-01-13T12:05:50.830Z,12.70
2023-01-13T12:06:50.831Z,12.60
2023-01-13T12:07:50.827Z,12.70
2023-01-13T12:08:50.827Z,13.00
2023-01-13T12:09:50.827Z,12.00
2023-01-13T12:10:50.841Z,12.80
2023-01-13T12:11:50.846Z,12.50
2023-01-13T12:12:50.844Z,12.10
2023-01-13T12:13:50.832Z,12.50
2023-01-13T12:14:50.819Z,11.90
2023-01-13T12:15:50.823Z,12.60
2023-01-13T12:16:50.971Z,11.80
2023-01-13T12:17:50.836Z,11.10
2023-01-13T12:18:50.814Z,11.80
2023-01-13T12:19:50.817Z,11.60
2023-01-13T12:20:50.836Z,12.40
2023-01-13T12:21:50.808Z,12.20
2023-01-13T12:22:50.816Z,12.20
2023-01-13T12:23:50.803Z,11.80
2023-01-13T12:24:50.807Z,12.30
2023-01-13T12:25:50.822Z,12.10
2023-01-13T12:26:50.806Z,12.30
2023-01-13T12:27:50.804Z,12.30
2023-01-13T12:28:50.922Z,12.40
2023-01-13T12:29:50.808Z,12.70
2023-01-13T12:30:50.802Z,12.30
2023-01-13T12:31:50.843Z,12.30
2023-01-13T12:32:50.801Z,12.70
2023-01-13T12:33:50.796Z,12.60
2023-01-13T12:34:50.805Z,12.60
2023-01-13T12:35:50.791Z,12.80
2023-01-13T12:36:50.827Z,12.80
2023-01-13T12:37:50.787Z,12.70
2023-01-13T12:38:50.788Z,12.70
2023-01-13T12:39:50.789Z,12.90
2023-01-13T12:40:50.792Z,12.60
2023-01-13T12:41:50.788Z,12.10
2023-01-13T12:42:50.791Z,12.70
2023-01-13T12:43:50.781Z,12.80
2023-01-13T12:44:50.796Z,12.30
2023-01-13T12:45:50.822Z,12.30
2023-01-13T12:46:50.805Z,12.90
2023-01-13T12:47:50.801Z,12.60
2023-01-13T12:48:50.777Z,12.90
2023-01-13T12:49:50.783Z,12.90
2023-01-13T12:50:50.793Z,13.00
2023-01-13T12:51:50.778Z,13.20
2023-01-13T12:52:50.797Z,12.50
2023-01-13T12:53:50.773Z,12.70